sensor_id;sensor_type;location;lat;lon;timestamp;P1;durP1;ratioP1;P2;durP2;ratioP2
9976;SDS011;5029;47.378;11.776;2023-04-15T00:03:01;3.77;;;2.70;;
9976;SDS011;5029;47.378;11.776;2023-04-15T00:08:06;2.80;;;2.50;;
9976;SDS011;5029;47.378;11.776;2023-04-15T00:13:11;2.93;;;2.67;;
9976;SDS011;5029;47.378;11.776;2023-04-15T00:18:14;4.67;;;2.80;;
9976;SDS011;5029;47.378;11.776;2023-04-15T00:23:17;3.23;;;2.93;;
9976;SDS011;5029;47.378;11.776;2023-04-15T00:28:22;3.10;;;2.83;;
9976;SDS011;5029;47.378;11.776;2023-04-15T00:33:25;3.03;;;2.83;;
9976;SDS011;5029;47.378;11.776;2023-04-15T00:38:28;3.30;;;3.00;;
9976;SDS011;5029;47.378;11.776;2023-04-15T00:43:33;3.97;;;3.50;;
9976;SDS011;5029;47.378;11.776;2023-04-15T00:48:36;3.00;;;2.80;;
9976;SDS011;5029;47.378;11.776;2023-04-15T00:53:40;2.83;;;2.63;;
9976;SDS011;5029;47.378;11.776;2023-04-15T00:58:45;4.10;;;3.10;;
9976;SDS011;5029;47.378;11.776;2023-04-15T01:03:49;3.80;;;3.40;;
9976;SDS011;5029;47.378;11.776;2023-04-15T01:08:53;3.50;;;3.20;;
9976;SDS011;5029;47.378;11.776;2023-04-15T01:13:58;3.40;;;3.10;;
9976;SDS011;5029;47.378;11.776;2023-04-15T01:19:02;3.67;;;3.37;;
9976;SDS011;5029;47.378;11.776;2023-04-15T01:24:07;4.13;;;3.07;;
9976;SDS011;5029;47.378;11.776;2023-04-15T01:29:13;4.13;;;2.30;;
9976;SDS011;5029;47.378;11.776;2023-04-15T01:34:17;3.40;;;2.97;;
9976;SDS011;5029;47.378;11.776;2023-04-15T01:39:21;3.70;;;3.40;;
9976;SDS011;5029;47.378;11.776;2023-04-15T01:44:27;3.53;;;3.23;;
9976;SDS011;5029;47.378;11.776;2023-04-15T01:49:30;4.73;;;3.17;;
9976;SDS011;5029;47.378;11.776;2023-04-15T01:54:33;5.87;;;5.27;;
9976;SDS011;5029;47.378;11.776;2023-04-15T01:59:38;4.57;;;4.17;;
9976;SDS011;5029;47.378;11.776;2023-04-15T02:04:42;3.40;;;3.10;;
9976;SDS011;5029;47.378;11.776;2023-04-15T02:09:46;3.97;;;3.57;;
9976;SDS011;5029;47.378;11.776;2023-04-15T02:14:50;3.83;;;3.50;;
9976;SDS011;5029;47.378;11.776;2023-04-15T02:19:54;3.63;;;3.33;;
9976;SDS011;5029;47.378;11.776;2023-04-15T02:24:58;2.77;;;2.53;;
9976;SDS011;5029;47.378;11.776;2023-04-15T02:30:02;4.90;;;4.00;;
9976;SDS011;5029;47.378;11.776;2023-04-15T02:35:08;5.47;;;4.97;;
9976;SDS011;5029;47.378;11.776;2023-04-15T02:40:12;6.10;;;5.60;;
9976;SDS011;5029;47.378;11.776;2023-04-15T02:45:17;5.50;;;5.00;;
9976;SDS011;5029;47.378;11.776;2023-04-15T02:50:24;3.50;;;3.20;;
9976;SDS011;5029;47.378;11.776;2023-04-15T02:55:27;3.87;;;3.07;;
9976;SDS011;5029;47.378;11.776;2023-04-15T03:00:32;3.53;;;3.07;;
9976;SDS011;5029;47.378;11.776;2023-04-15T03:05:36;3.33;;;2.40;;
9976;SDS011;5029;47.378;11.776;2023-04-15T03:10:39;4.07;;;3.20;;
9976;SDS011;5029;47.378;11.776;2023-04-15T03:15:45;4.20;;;3.80;;
9976;SDS011;5029;47.378;11.776;2023-04-15T03:20:49;4.20;;;3.70;;
9976;SDS011;5029;47.378;11.776;2023-04-15T03:25:52;4.30;;;4.00;;
9976;SDS011;5029;47.378;11.776;2023-04-15T03:30:59;4.80;;;4.30;;
9976;SDS011;5029;47.378;11.776;2023-04-15T03:36:02;4.23;;;3.83;;
9976;SDS011;5029;47.378;11.776;2023-04-15T03:41:06;4.23;;;3.50;;
9976;SDS011;5029;47.378;11.776;2023-04-15T03:46:11;4.40;;;3.20;;
9976;SDS011;5029;47.378;11.776;2023-04-15T03:51:14;4.07;;;3.27;;
9976;SDS011;5029;47.378;11.776;2023-04-15T03:56:17;6.03;;;5.43;;
9976;SDS011;5029;47.378;11.776;2023-04-15T04:01:22;6.70;;;5.97;;
9976;SDS011;5029;47.378;11.776;2023-04-15T04:06:25;6.97;;;4.97;;
9976;SDS011;5029;47.378;11.776;2023-04-15T04:11:28;4.33;;;3.93;;
9976;SDS011;5029;47.378;11.776;2023-04-15T04:16:33;4.90;;;4.40;;
9976;SDS011;5029;47.378;11.776;2023-04-15T04:21:36;4.20;;;3.47;;
9976;SDS011;5029;47.378;11.776;2023-04-15T04:26:40;4.70;;;4.30;;
9976;SDS011;5029;47.378;11.776;2023-04-15T04:31:44;4.33;;;3.90;;
9976;SDS011;5029;47.378;11.776;2023-04-15T04:36:49;3.37;;;2.83;;
9976;SDS011;5029;47.378;11.776;2023-04-15T04:41:52;4.00;;;2.63;;
9976;SDS011;5029;47.378;11.776;2023-04-15T04:46:57;4.37;;;3.30;;
9976;SDS011;5029;47.378;11.776;2023-04-15T04:52:00;4.00;;;3.53;;
9976;SDS011;5029;47.378;11.776;2023-04-15T04:57:04;3.80;;;3.50;;
9976;SDS011;5029;47.378;11.776;2023-04-15T05:02:09;4.73;;;4.33;;
9976;SDS011;5029;47.378;11.776;2023-04-15T05:07:13;4.40;;;4.00;;
9976;SDS011;5029;47.378;11.776;2023-04-15T05:12:19;5.20;;;4.70;;
9976;SDS011;5029;47.378;11.776;2023-04-15T05:17:24;4.67;;;4.17;;
9976;SDS011;5029;47.378;11.776;2023-04-15T05:22:27;4.73;;;4.30;;
9976;SDS011;5029;47.378;11.776;2023-04-15T05:27:31;4.53;;;3.73;;
9976;SDS011;5029;47.378;11.776;2023-04-15T05:32:36;4.80;;;4.27;;
9976;SDS011;5029;47.378;11.776;2023-04-15T05:37:39;4.17;;;3.77;;
9976;SDS011;5029;47.378;11.776;2023-04-15T05:42:42;4.90;;;4.40;;
9976;SDS011;5029;47.378;11.776;2023-04-15T05:47:47;5.87;;;5.00;;
9976;SDS011;5029;47.378;11.776;2023-04-15T05:52:54;6.53;;;5.27;;
9976;SDS011;5029;47.378;11.776;2023-04-15T05:57:58;4.10;;;3.70;;
9976;SDS011;5029;47.378;11.776;2023-04-15T06:03:02;4.63;;;4.07;;
9976;SDS011;5029;47.378;11.776;2023-04-15T06:08:06;4.10;;;3.70;;
9976;SDS011;5029;47.378;11.776;2023-04-15T06:13:10;4.10;;;3.37;;
9976;SDS011;5029;47.378;11.776;2023-04-15T06:18:14;4.33;;;3.93;;
9976;SDS011;5029;47.378;11.776;2023-04-15T06:23:18;4.40;;;4.00;;
9976;SDS011;5029;47.378;11.776;2023-04-15T06:28:21;5.17;;;4.67;;
9976;SDS011;5029;47.378;11.776;2023-04-15T06:33:25;5.80;;;5.30;;
9976;SDS011;5029;47.378;11.776;2023-04-15T06:38:29;4.30;;;3.90;;
9976;SDS011;5029;47.378;11.776;2023-04-15T06:43:32;5.70;;;4.27;;
9976;SDS011;5029;47.378;11.776;2023-04-15T06:48:37;5.60;;;4.40;;
9976;SDS011;5029;47.378;11.776;2023-04-15T06:53:40;3.60;;;3.30;;
9976;SDS011;5029;47.378;11.776;2023-04-15T06:58:44;3.97;;;2.67;;
9976;SDS011;5029;47.378;11.776;2023-04-15T07:03:49;4.03;;;2.30;;
9976;SDS011;5029;47.378;11.776;2023-04-15T07:08:53;2.23;;;1.50;;
9976;SDS011;5029;47.378;11.776;2023-04-15T07:13:56;2.60;;;1.37;;
9976;SDS011;5029;47.378;11.776;2023-04-15T07:19:01;1.67;;;1.57;;
9976;SDS011;5029;47.378;11.776;2023-04-15T07:24:05;1.50;;;1.40;;
9976;SDS011;5029;47.378;11.776;2023-04-15T07:29:09;1.23;;;1.13;;
9976;SDS011;5029;47.378;11.776;2023-04-15T07:34:13;1.97;;;1.30;;
9976;SDS011;5029;47.378;11.776;2023-04-15T07:39:17;2.53;;;2.13;;
9976;SDS011;5029;47.378;11.776;2023-04-15T07:44:20;2.63;;;1.70;;
9976;SDS011;5029;47.378;11.776;2023-04-15T07:49:25;9.73;;;8.70;;
9976;SDS011;5029;47.378;11.776;2023-04-15T07:54:28;6.17;;;4.00;;
9976;SDS011;5029;47.378;11.776;2023-04-15T07:59:31;1.87;;;1.40;;
9976;SDS011;5029;47.378;11.776;2023-04-15T08:04:36;3.07;;;1.60;;
9976;SDS011;5029;47.378;11.776;2023-04-15T08:09:40;2.30;;;1.90;;
9976;SDS011;5029;47.378;11.776;2023-04-15T08:14:43;2.50;;;1.40;;
9976;SDS011;5029;47.378;11.776;2023-04-15T08:19:48;1.97;;;1.30;;
9976;SDS011;5029;47.378;11.776;2023-04-15T08:24:51;2.13;;;1.70;;
9976;SDS011;5029;47.378;11.776;2023-04-15T08:29:55;1.97;;;1.60;;
9976;SDS011;5029;47.378;11.776;2023-04-15T08:35:00;2.60;;;1.60;;
9976;SDS011;5029;47.378;11.776;2023-04-15T08:40:03;1.93;;;1.20;;
9976;SDS011;5029;47.378;11.776;2023-04-15T08:45:09;2.87;;;2.13;;
9976;SDS011;5029;47.378;11.776;2023-04-15T08:50:13;2.93;;;2.37;;
9976;SDS011;5029;47.378;11.776;2023-04-15T08:55:22;2.80;;;2.20;;
9976;SDS011;5029;47.378;11.776;2023-04-15T09:00:26;2.53;;;1.70;;
9976;SDS011;5029;47.378;11.776;2023-04-15T09:05:32;3.73;;;1.70;;
9976;SDS011;5029;47.378;11.776;2023-04-15T09:10:36;1.93;;;1.40;;
9976;SDS011;5029;47.378;11.776;2023-04-15T09:15:39;2.07;;;1.47;;
9976;SDS011;5029;47.378;11.776;2023-04-15T09:20:44;1.90;;;1.40;;
9976;SDS011;5029;47.378;11.776;2023-04-15T09:25:47;2.60;;;1.77;;
9976;SDS011;5029;47.378;11.776;2023-04-15T09:30:54;2.27;;;1.90;;
9976;SDS011;5029;47.378;11.776;2023-04-15T09:36:01;2.67;;;2.20;;
9976;SDS011;5029;47.378;11.776;2023-04-15T09:41:06;2.43;;;1.53;;
9976;SDS011;5029;47.378;11.776;2023-04-15T09:46:20;1.97;;;1.60;;
9976;SDS011;5029;47.378;11.776;2023-04-15T09:51:45;3.00;;;1.40;;
9976;SDS011;5029;47.378;11.776;2023-04-15T09:57:06;2.43;;;1.40;;
9976;SDS011;5029;47.378;11.776;2023-04-15T10:02:12;4.03;;;1.60;;
9976;SDS011;5029;47.378;11.776;2023-04-15T10:07:19;2.03;;;1.10;;
9976;SDS011;5029;47.378;11.776;2023-04-15T10:12:24;3.17;;;1.37;;
9976;SDS011;5029;47.378;11.776;2023-04-15T10:17:28;2.77;;;1.37;;
9976;SDS011;5029;47.378;11.776;2023-04-15T10:22:35;1.70;;;1.30;;
9976;SDS011;5029;47.378;11.776;2023-04-15T10:27:40;2.50;;;1.30;;
9976;SDS011;5029;47.378;11.776;2023-04-15T10:32:43;2.20;;;1.30;;
9976;SDS011;5029;47.378;11.776;2023-04-15T10:37:49;1.67;;;1.10;;
9976;SDS011;5029;47.378;11.776;2023-04-15T10:42:52;2.43;;;1.07;;
9976;SDS011;5029;47.378;11.776;2023-04-15T10:47:57;0.90;;;0.80;;
9976;SDS011;5029;47.378;11.776;2023-04-15T10:53:05;3.20;;;1.20;;
9976;SDS011;5029;47.378;11.776;2023-04-15T10:58:12;1.97;;;0.90;;
9976;SDS011;5029;47.378;11.776;2023-04-15T11:03:16;2.07;;;1.17;;
9976;SDS011;5029;47.378;11.776;2023-04-15T11:08:56;0.90;;;0.70;;
9976;SDS011;5029;47.378;11.776;2023-04-15T11:14:04;1.67;;;1.00;;
9976;SDS011;5029;47.378;11.776;2023-04-15T11:19:08;1.63;;;1.07;;
9976;SDS011;5029;47.378;11.776;2023-04-15T11:24:19;2.97;;;1.43;;
9976;SDS011;5029;47.378;11.776;2023-04-15T11:29:28;2.97;;;1.13;;
9976;SDS011;5029;47.378;11.776;2023-04-15T11:34:33;2.80;;;1.73;;
9976;SDS011;5029;47.378;11.776;2023-04-15T11:39:38;2.03;;;1.70;;
9976;SDS011;5029;47.378;11.776;2023-04-15T11:44:43;3.70;;;2.40;;
9976;SDS011;5029;47.378;11.776;2023-04-15T11:49:47;4.60;;;2.20;;
9976;SDS011;5029;47.378;11.776;2023-04-15T11:54:52;3.50;;;2.53;;
9976;SDS011;5029;47.378;11.776;2023-04-15T12:00:05;2.77;;;2.43;;
9976;SDS011;5029;47.378;11.776;2023-04-15T12:05:10;3.77;;;2.27;;
9976;SDS011;5029;47.378;11.776;2023-04-15T12:10:15;4.07;;;2.40;;
9976;SDS011;5029;47.378;11.776;2023-04-15T12:15:20;3.73;;;2.37;;
9976;SDS011;5029;47.378;11.776;2023-04-15T12:20:25;4.27;;;2.63;;
9976;SDS011;5029;47.378;11.776;2023-04-15T12:25:34;4.37;;;2.70;;
9976;SDS011;5029;47.378;11.776;2023-04-15T12:30:47;3.67;;;2.57;;
9976;SDS011;5029;47.378;11.776;2023-04-15T12:35:52;3.00;;;2.20;;
9976;SDS011;5029;47.378;11.776;2023-04-15T12:40:56;3.43;;;2.30;;
9976;SDS011;5029;47.378;11.776;2023-04-15T12:46:00;2.90;;;2.40;;
9976;SDS011;5029;47.378;11.776;2023-04-15T12:51:03;3.17;;;2.40;;
9976;SDS011;5029;47.378;11.776;2023-04-15T12:56:08;5.03;;;2.17;;
9976;SDS011;5029;47.378;11.776;2023-04-15T13:01:11;2.50;;;2.30;;
9976;SDS011;5029;47.378;11.776;2023-04-15T13:06:15;3.10;;;2.10;;
9976;SDS011;5029;47.378;11.776;2023-04-15T13:11:20;4.07;;;2.33;;
9976;SDS011;5029;47.378;11.776;2023-04-15T13:16:23;2.43;;;2.23;;
9976;SDS011;5029;47.378;11.776;2023-04-15T13:21:27;3.03;;;2.53;;
9976;SDS011;5029;47.378;11.776;2023-04-15T13:26:33;3.00;;;2.50;;
9976;SDS011;5029;47.378;11.776;2023-04-15T13:31:36;2.40;;;1.90;;
9976;SDS011;5029;47.378;11.776;2023-04-15T13:36:39;2.50;;;2.10;;
9976;SDS011;5029;47.378;11.776;2023-04-15T13:41:44;5.70;;;2.30;;
9976;SDS011;5029;47.378;11.776;2023-04-15T13:46:48;2.43;;;2.07;;
9976;SDS011;5029;47.378;11.776;2023-04-15T13:51:52;3.37;;;2.33;;
9976;SDS011;5029;47.378;11.776;2023-04-15T13:56:56;2.63;;;2.30;;
9976;SDS011;5029;47.378;11.776;2023-04-15T14:01:59;3.93;;;2.60;;
9976;SDS011;5029;47.378;11.776;2023-04-15T14:07:03;3.23;;;2.20;;
9976;SDS011;5029;47.378;11.776;2023-04-15T14:12:08;2.93;;;2.13;;
9976;SDS011;5029;47.378;11.776;2023-04-15T14:17:11;2.40;;;2.10;;
9976;SDS011;5029;47.378;11.776;2023-04-15T14:22:14;4.00;;;2.10;;
9976;SDS011;5029;47.378;11.776;2023-04-15T14:27:20;3.87;;;2.03;;
9976;SDS011;5029;47.378;11.776;2023-04-15T14:32:25;3.60;;;1.97;;
9976;SDS011;5029;47.378;11.776;2023-04-15T14:37:28;2.57;;;1.70;;
9976;SDS011;5029;47.378;11.776;2023-04-15T14:42:33;2.83;;;1.97;;
9976;SDS011;5029;47.378;11.776;2023-04-15T14:47:38;2.70;;;2.17;;
9976;SDS011;5029;47.378;11.776;2023-04-15T14:52:42;4.30;;;2.07;;
9976;SDS011;5029;47.378;11.776;2023-04-15T14:57:47;2.47;;;1.90;;
9976;SDS011;5029;47.378;11.776;2023-04-15T15:02:51;3.17;;;2.07;;
9976;SDS011;5029;47.378;11.776;2023-04-15T15:07:55;2.50;;;2.30;;
9976;SDS011;5029;47.378;11.776;2023-04-15T15:13:00;4.07;;;2.33;;
9976;SDS011;5029;47.378;11.776;2023-04-15T15:18:04;3.60;;;3.10;;
9976;SDS011;5029;47.378;11.776;2023-04-15T15:23:08;3.60;;;2.63;;
9976;SDS011;5029;47.378;11.776;2023-04-15T15:28:13;4.30;;;2.93;;
9976;SDS011;5029;47.378;11.776;2023-04-15T15:33:16;3.90;;;3.03;;
9976;SDS011;5029;47.378;11.776;2023-04-15T15:38:21;3.37;;;2.17;;
9976;SDS011;5029;47.378;11.776;2023-04-15T15:43:26;2.37;;;1.97;;
9976;SDS011;5029;47.378;11.776;2023-04-15T15:48:29;2.70;;;2.27;;
9976;SDS011;5029;47.378;11.776;2023-04-15T15:53:32;3.13;;;2.60;;
9976;SDS011;5029;47.378;11.776;2023-04-15T15:58:38;3.80;;;2.90;;
9976;SDS011;5029;47.378;11.776;2023-04-15T16:03:41;3.20;;;2.67;;
9976;SDS011;5029;47.378;11.776;2023-04-15T16:08:44;4.40;;;3.37;;
9976;SDS011;5029;47.378;11.776;2023-04-15T16:13:49;3.90;;;3.23;;
9976;SDS011;5029;47.378;11.776;2023-04-15T16:18:53;3.40;;;3.10;;
9976;SDS011;5029;47.378;11.776;2023-04-15T16:23:56;3.23;;;2.60;;
9976;SDS011;5029;47.378;11.776;2023-04-15T16:29:01;2.97;;;2.30;;
9976;SDS011;5029;47.378;11.776;2023-04-15T16:34:05;2.50;;;1.97;;
9976;SDS011;5029;47.378;11.776;2023-04-15T16:39:08;2.10;;;1.50;;
9976;SDS011;5029;47.378;11.776;2023-04-15T16:44:14;1.83;;;1.50;;
9976;SDS011;5029;47.378;11.776;2023-04-15T16:49:18;1.93;;;1.73;;
9976;SDS011;5029;47.378;11.776;2023-04-15T16:54:21;2.07;;;1.70;;
9976;SDS011;5029;47.378;11.776;2023-04-15T16:59:27;2.10;;;1.83;;
9976;SDS011;5029;47.378;11.776;2023-04-15T17:04:30;3.53;;;1.97;;
9976;SDS011;5029;47.378;11.776;2023-04-15T17:09:37;3.10;;;2.20;;
9976;SDS011;5029;47.378;11.776;2023-04-15T17:14:42;1.70;;;1.50;;
9976;SDS011;5029;47.378;11.776;2023-04-15T17:19:45;3.13;;;1.90;;
9976;SDS011;5029;47.378;11.776;2023-04-15T17:24:49;3.30;;;2.07;;
9976;SDS011;5029;47.378;11.776;2023-04-15T17:29:54;3.60;;;2.70;;
9976;SDS011;5029;47.378;11.776;2023-04-15T17:34:58;2.20;;;2.00;;
9976;SDS011;5029;47.378;11.776;2023-04-15T17:40:02;2.33;;;1.93;;
9976;SDS011;5029;47.378;11.776;2023-04-15T17:45:11;2.17;;;1.80;;
9976;SDS011;5029;47.378;11.776;2023-04-15T17:50:14;1.70;;;1.60;;
9976;SDS011;5029;47.378;11.776;2023-04-15T17:55:19;3.17;;;1.90;;
9976;SDS011;5029;47.378;11.776;2023-04-15T18:00:26;2.70;;;1.90;;
9976;SDS011;5029;47.378;11.776;2023-04-15T18:05:30;3.30;;;1.83;;
9976;SDS011;5029;47.378;11.776;2023-04-15T18:10:34;3.77;;;2.07;;
9976;SDS011;5029;47.378;11.776;2023-04-15T18:15:42;3.43;;;2.23;;
9976;SDS011;5029;47.378;11.776;2023-04-15T18:20:48;2.80;;;2.00;;
9976;SDS011;5029;47.378;11.776;2023-04-15T18:25:53;3.07;;;2.20;;
9976;SDS011;5029;47.378;11.776;2023-04-15T18:31:00;3.30;;;2.20;;
9976;SDS011;5029;47.378;11.776;2023-04-15T18:36:05;3.30;;;2.60;;
9976;SDS011;5029;47.378;11.776;2023-04-15T18:41:09;2.83;;;2.50;;
9976;SDS011;5029;47.378;11.776;2023-04-15T18:46:15;3.50;;;2.33;;
9976;SDS011;5029;47.378;11.776;2023-04-15T18:51:19;3.50;;;2.63;;
9976;SDS011;5029;47.378;11.776;2023-04-15T18:56:24;3.13;;;2.80;;
9976;SDS011;5029;47.378;11.776;2023-04-15T19:01:29;4.77;;;2.60;;
9976;SDS011;5029;47.378;11.776;2023-04-15T19:06:33;3.20;;;2.80;;
9976;SDS011;5029;47.378;11.776;2023-04-15T19:11:45;3.60;;;2.60;;
9976;SDS011;5029;47.378;11.776;2023-04-15T19:16:52;2.47;;;2.20;;
9976;SDS011;5029;47.378;11.776;2023-04-15T19:21:57;2.67;;;2.17;;
9976;SDS011;5029;47.378;11.776;2023-04-15T19:27:02;2.50;;;2.30;;
9976;SDS011;5029;47.378;11.776;2023-04-15T19:32:08;2.40;;;1.90;;
9976;SDS011;5029;47.378;11.776;2023-04-15T19:37:15;2.80;;;2.33;;
9976;SDS011;5029;47.378;11.776;2023-04-15T19:42:18;3.07;;;1.93;;
9976;SDS011;5029;47.378;11.776;2023-04-15T19:47:24;3.53;;;1.90;;
9976;SDS011;5029;47.378;11.776;2023-04-15T19:52:30;2.00;;;1.80;;
9976;SDS011;5029;47.378;11.776;2023-04-15T19:57:34;1.90;;;1.70;;
9976;SDS011;5029;47.378;11.776;2023-04-15T20:02:39;1.70;;;1.60;;
9976;SDS011;5029;47.378;11.776;2023-04-15T20:07:44;1.97;;;1.60;;
9976;SDS011;5029;47.378;11.776;2023-04-15T20:12:52;2.80;;;1.87;;
9976;SDS011;5029;47.378;11.776;2023-04-15T20:17:58;3.17;;;2.00;;
9976;SDS011;5029;47.378;11.776;2023-04-15T20:23:06;1.60;;;1.50;;
9976;SDS011;5029;47.378;11.776;2023-04-15T20:28:11;3.37;;;1.50;;
9976;SDS011;5029;47.378;11.776;2023-04-15T20:33:17;1.63;;;1.20;;
9976;SDS011;5029;47.378;11.776;2023-04-15T20:38:22;1.20;;;1.10;;
9976;SDS011;5029;47.378;11.776;2023-04-15T20:43:27;1.40;;;1.30;;
9976;SDS011;5029;47.378;11.776;2023-04-15T20:48:32;1.43;;;1.23;;
9976;SDS011;5029;47.378;11.776;2023-04-15T20:53:36;2.17;;;1.40;;
9976;SDS011;5029;47.378;11.776;2023-04-15T20:58:42;2.43;;;1.40;;
9976;SDS011;5029;47.378;11.776;2023-04-15T21:03:47;1.30;;;1.20;;
9976;SDS011;5029;47.378;11.776;2023-04-15T21:08:51;1.60;;;1.50;;
9976;SDS011;5029;47.378;11.776;2023-04-15T21:13:55;2.23;;;1.30;;
9976;SDS011;5029;47.378;11.776;2023-04-15T21:18:59;2.13;;;1.40;;
9976;SDS011;5029;47.378;11.776;2023-04-15T21:24:03;1.40;;;1.07;;
9976;SDS011;5029;47.378;11.776;2023-04-15T21:29:08;1.83;;;1.43;;
9976;SDS011;5029;47.378;11.776;2023-04-15T21:34:14;2.37;;;1.67;;
9976;SDS011;5029;47.378;11.776;2023-04-15T21:39:17;1.43;;;1.33;;
9976;SDS011;5029;47.378;11.776;2023-04-15T21:44:21;1.90;;;1.57;;
9976;SDS011;5029;47.378;11.776;2023-04-15T21:49:26;1.50;;;1.30;;
9976;SDS011;5029;47.378;11.776;2023-04-15T21:54:29;1.80;;;1.33;;
9976;SDS011;5029;47.378;11.776;2023-04-15T21:59:33;1.80;;;1.17;;
9976;SDS011;5029;47.378;11.776;2023-04-15T22:04:38;1.30;;;1.10;;
9976;SDS011;5029;47.378;11.776;2023-04-15T22:09:42;2.13;;;1.40;;
9976;SDS011;5029;47.378;11.776;2023-04-15T22:14:45;1.60;;;1.37;;
9976;SDS011;5029;47.378;11.776;2023-04-15T22:19:50;1.43;;;1.33;;
9976;SDS011;5029;47.378;11.776;2023-04-15T22:24:53;1.47;;;1.37;;
9976;SDS011;5029;47.378;11.776;2023-04-15T22:29:56;1.50;;;1.40;;
9976;SDS011;5029;47.378;11.776;2023-04-15T22:35:01;1.63;;;1.53;;
9976;SDS011;5029;47.378;11.776;2023-04-15T22:40:07;2.77;;;1.50;;
9976;SDS011;5029;47.378;11.776;2023-04-15T22:45:11;1.70;;;1.50;;
9976;SDS011;5029;47.378;11.776;2023-04-15T22:50:15;1.70;;;1.40;;
9976;SDS011;5029;47.378;11.776;2023-04-15T22:55:19;2.77;;;1.67;;
9976;SDS011;5029;47.378;11.776;2023-04-15T23:00:22;2.03;;;1.83;;
9976;SDS011;5029;47.378;11.776;2023-04-15T23:05:28;2.47;;;2.13;;
9976;SDS011;5029;47.378;11.776;2023-04-15T23:10:32;2.20;;;2.00;;
9976;SDS011;5029;47.378;11.776;2023-04-15T23:15:35;2.50;;;1.80;;
9976;SDS011;5029;47.378;11.776;2023-04-15T23:20:40;2.57;;;2.37;;
9976;SDS011;5029;47.378;11.776;2023-04-15T23:25:43;2.30;;;2.10;;
9976;SDS011;5029;47.378;11.776;2023-04-15T23:30:46;2.63;;;2.40;;
9976;SDS011;5029;47.378;11.776;2023-04-15T23:35:51;2.10;;;1.90;;
9976;SDS011;5029;47.378;11.776;2023-04-15T23:40:55;3.20;;;2.03;;
9976;SDS011;5029;47.378;11.776;2023-04-15T23:45:58;2.43;;;2.23;;
9976;SDS011;5029;47.378;11.776;2023-04-15T23:51:03;2.10;;;1.90;;
9976;SDS011;5029;47.378;11.776;2023-04-15T23:56:07;2.80;;;2.60;;
